Time;durP1;ratioP1;P1;durP2;ratioP2;P2;SDS_P1;SDS_P2;PMS_P1;PMS_P2;Temp;Humidity;BMP_temperature;BMP_pressure;BME280_temperature;BME280_humidity;BME280_pressure;Samples;Min_cycle;Max_cycle;Signal;HPM_P1;HPM_P2
2023/02/06 00:02:17;;;;;;;15.13;4.97;;;4.90;99.90;;;;;;5059124;28;20170;-78
2023/02/06 00:04:42;;;;;;;13.23;5.00;;;4.70;99.90;;;;;;5057302;28;20224;-78
2023/02/06 00:07:08;;;;;;;15.77;4.70;;;4.90;99.90;;;;;;5057914;28;20208;-78
2023/02/06 00:09:34;;;;;;;16.37;5.20;;;4.70;99.90;;;;;;5057190;28;20212;-78
2023/02/06 00:11:59;;;;;;;14.80;4.30;;;4.70;99.90;;;;;;5058536;28;20266;-78
2023/02/06 00:14:25;;;;;;;12.53;4.00;;;4.70;99.90;;;;;;5061159;28;20201;-78
2023/02/06 00:16:50;;;;;;;12.67;5.47;;;4.80;99.90;;;;;;5062990;28;20181;-78
2023/02/06 00:19:16;;;;;;;12.97;3.90;;;4.70;99.90;;;;;;5061237;28;20232;-78
2023/02/06 00:21:42;;;;;;;14.43;4.43;;;4.70;99.90;;;;;;5044601;28;20205;-78
2023/02/06 00:24:08;;;;;;;11.93;4.57;;;4.70;99.90;;;;;;5061753;28;20217;-78
2023/02/06 00:26:34;;;;;;;12.57;4.20;;;4.70;99.90;;;;;;5044220;28;20416;-78
2023/02/06 00:28:59;;;;;;;22.73;6.33;;;4.60;99.90;;;;;;5062457;28;20240;-78
2023/02/06 00:31:25;;;;;;;11.20;3.97;;;4.60;99.90;;;;;;5060780;28;20239;-78
2023/02/06 00:33:51;;;;;;;18.20;4.90;;;4.50;99.90;;;;;;5061823;28;20193;-77
2023/02/06 00:36:16;;;;;;;14.40;5.73;;;4.70;99.90;;;;;;5060615;28;20184;-78
2023/02/06 00:38:42;;;;;;;12.80;4.67;;;4.60;99.90;;;;;;5061177;28;20189;-78
2023/02/06 00:41:07;;;;;;;16.70;4.20;;;4.60;99.90;;;;;;5061051;28;20227;-78
2023/02/06 00:43:33;;;;;;;15.87;3.77;;;4.50;99.90;;;;;;5062396;28;20178;-78
2023/02/06 00:45:59;;;;;;;9.40;4.53;;;4.80;99.90;;;;;;5064168;28;20201;-78
2023/02/06 00:48:24;;;;;;;13.50;4.70;;;4.60;99.90;;;;;;5080902;28;20680;-78
2023/02/06 00:50:51;;;;;;;16.37;4.60;;;4.50;99.90;;;;;;5064328;28;20185;-78
2023/02/06 00:53:17;;;;;;;13.10;4.20;;;4.70;99.90;;;;;;5081008;28;20528;-78
2023/02/06 00:55:43;;;;;;;17.77;4.80;;;4.60;99.90;;;;;;5064395;28;20442;-78
2023/02/06 00:58:09;;;;;;;10.73;3.97;;;4.40;99.90;;;;;;5080371;28;20416;-78
2023/02/06 01:00:35;;;;;;;18.40;5.17;;;4.30;99.90;;;;;;5081937;28;20184;-78
2023/02/06 01:03:01;;;;;;;14.60;4.30;;;4.60;99.90;;;;;;5063847;28;20419;-78
2023/02/06 01:05:26;;;;;;;12.30;4.43;;;4.40;99.90;;;;;;5079884;28;20220;-78
2023/02/06 01:07:52;;;;;;;11.30;4.40;;;4.60;99.90;;;;;;5063500;28;21113;-78
2023/02/06 01:10:18;;;;;;;14.43;5.33;;;4.30;99.90;;;;;;5080861;28;20177;-78
2023/02/06 01:12:44;;;;;;;16.87;5.07;;;4.30;99.90;;;;;;5063009;28;20269;-78
2023/02/06 01:15:11;;;;;;;14.43;5.10;;;4.40;99.90;;;;;;5080790;28;20971;-79
2023/02/06 01:17:38;;;;;;;19.87;4.60;;;4.30;99.90;;;;;;5080579;28;20187;-78
2023/02/06 01:20:06;;;;;;;13.13;3.90;;;4.20;99.90;;;;;;5079381;28;20407;-78
2023/02/06 01:22:33;;;;;;;23.60;5.07;;;4.20;99.90;;;;;;5082469;28;20411;-78
2023/02/06 01:24:59;;;;;;;12.17;4.10;;;4.30;99.90;;;;;;5080366;28;20435;-78
2023/02/06 01:27:25;;;;;;;13.60;5.70;;;4.00;99.90;;;;;;5080159;28;20945;-79
2023/02/06 01:29:51;;;;;;;13.87;4.50;;;4.00;99.90;;;;;;5077762;28;20411;-78
2023/02/06 01:32:17;;;;;;;16.63;5.10;;;4.10;99.90;;;;;;5061383;28;20430;-79
2023/02/06 01:34:42;;;;;;;15.13;3.87;;;4.00;99.90;;;;;;5060661;28;20231;-78
2023/02/06 01:37:08;;;;;;;13.30;4.90;;;4.10;99.90;;;;;;5078234;28;20195;-78
2023/02/06 01:39:34;;;;;;;13.40;4.93;;;4.20;99.90;;;;;;5068090;28;20181;-78
2023/02/06 01:42:00;;;;;;;17.43;4.30;;;4.30;99.90;;;;;;5058018;28;20182;-78
2023/02/06 01:44:26;;;;;;;19.80;5.50;;;4.00;99.90;;;;;;5066646;28;20556;-78
2023/02/06 01:46:54;;;;;;;15.23;4.10;;;3.90;99.90;;;;;;5077742;28;20529;-78
2023/02/06 01:49:30;;;;;;;13.17;4.20;;;4.00;99.90;;;;;;5079726;28;20222;-78
2023/02/06 01:52:23;;;;;;;16.17;4.83;;;4.20;99.90;;;;;;5078538;28;20414;-78
2023/02/06 01:54:58;;;;;;;16.30;6.77;;;3.80;99.90;;;;;;5074505;28;20443;-78
2023/02/06 01:57:25;;;;;;;17.30;4.70;;;3.90;99.90;;;;;;5077072;28;20485;-78
2023/02/06 02:00:04;;;;;;;11.93;4.47;;;3.90;99.90;;;;;;5078714;28;20555;-78
2023/02/06 02:02:32;;;;;;;20.20;6.10;;;3.70;99.90;;;;;;5077694;28;20811;-79
2023/02/06 02:05:00;;;;;;;9.03;3.97;;;3.80;99.90;;;;;;5073552;28;20439;-78
2023/02/06 02:07:48;;;;;;;14.70;3.97;;;3.70;99.90;;;;;;5071678;28;20425;-78
2023/02/06 02:10:13;;;;;;;18.40;4.60;;;3.50;99.90;;;;;;5070773;28;20930;-77
2023/02/06 02:12:39;;;;;;;11.27;4.20;;;3.70;99.90;;;;;;5075894;28;20411;-77
2023/02/06 02:15:05;;;;;;;18.87;4.40;;;3.70;99.90;;;;;;5059229;28;20208;-79
2023/02/06 02:18:01;;;;;;;11.70;4.40;;;3.50;99.90;;;;;;5060133;28;20181;-78
2023/02/06 02:20:45;;;;;;;9.90;4.00;;;3.40;99.90;;;;;;5059274;28;20415;-78
2023/02/06 02:23:29;;;;;;;10.63;3.43;;;3.50;99.90;;;;;;5078104;28;20414;-78
2023/02/06 02:26:09;;;;;;;9.73;3.77;;;3.60;99.90;;;;;;5077993;28;20429;-78
2023/02/06 02:29:00;;;;;;;15.30;4.53;;;3.50;99.90;;;;;;5077289;28;20815;-78
2023/02/06 02:32:13;;;;;;;13.10;3.90;;;3.30;99.90;;;;;;5079304;28;20412;-79
2023/02/06 02:35:05;;;;;;;17.93;4.77;;;3.20;99.90;;;;;;5037385;28;21049;-78
2023/02/06 02:37:52;;;;;;;17.80;5.07;;;3.40;99.90;;;;;;4998846;28;20590;-78
2023/02/06 02:40:28;;;;;;;16.03;5.20;;;3.10;99.90;;;;;;5073739;28;20407;-78
2023/02/06 02:43:19;;;;;;;14.50;4.20;;;3.40;99.90;;;;;;5080277;28;20466;-79
2023/02/06 02:45:54;;;;;;;14.30;4.43;;;3.30;99.90;;;;;;5061449;28;20444;-78
2023/02/06 02:48:25;;;;;;;13.87;4.90;;;3.30;99.90;;;;;;5058829;28;20998;-78
2023/02/06 02:50:53;;;;;;;10.53;4.17;;;3.40;99.90;;;;;;5059922;28;20478;-77
2023/02/06 02:53:20;;;;;;;20.00;6.33;;;3.40;99.90;;;;;;5059742;28;20459;-77
2023/02/06 02:55:45;;;;;;;18.17;4.53;;;3.30;99.90;;;;;;5060003;28;20957;-78
2023/02/06 02:58:17;;;;;;;25.07;6.17;;;3.40;99.90;;;;;;5058545;28;20538;-78
2023/02/06 03:00:49;;;;;;;12.93;4.57;;;3.20;99.90;;;;;;5059299;28;20232;-78
2023/02/06 03:03:20;;;;;;;18.63;5.77;;;3.20;99.90;;;;;;5060088;28;20423;-78
2023/02/06 03:06:11;;;;;;;22.40;5.53;;;3.20;99.90;;;;;;5059229;28;20539;-78
2023/02/06 03:09:01;;;;;;;18.40;4.73;;;3.40;99.90;;;;;;5060569;28;20459;-78
2023/02/06 03:11:27;;;;;;;14.30;5.93;;;3.30;99.90;;;;;;5059843;28;20408;-78
2023/02/06 03:14:21;;;;;;;11.40;5.00;;;3.40;99.90;;;;;;5060357;28;20411;-78
2023/02/06 03:16:53;;;;;;;9.83;4.63;;;3.20;99.90;;;;;;5060075;28;20412;-78
2023/02/06 03:19:40;;;;;;;16.03;4.80;;;3.30;99.90;;;;;;5059553;28;20424;-79
2023/02/06 03:22:06;;;;;;;19.33;5.40;;;3.10;99.90;;;;;;5059880;28;20483;-79
2023/02/06 03:24:37;;;;;;;10.50;4.70;;;3.00;99.90;;;;;;5060451;28;20428;-79
2023/02/06 03:27:06;;;;;;;14.63;4.57;;;3.10;99.90;;;;;;5058340;28;20412;-78
2023/02/06 03:29:34;;;;;;;19.60;5.60;;;3.20;99.90;;;;;;5059104;28;20927;-78
2023/02/06 03:32:23;;;;;;;16.87;4.73;;;3.00;99.90;;;;;;5060276;28;20408;-79
2023/02/06 03:35:11;;;;;;;12.37;5.13;;;3.20;99.90;;;;;;5058312;28;20483;-77
2023/02/06 03:37:37;;;;;;;15.03;4.80;;;3.10;99.90;;;;;;5059195;28;20761;-78
2023/02/06 03:40:05;;;;;;;16.20;5.80;;;2.90;99.90;;;;;;5058517;28;20901;-78
2023/02/06 03:42:33;;;;;;;15.60;5.23;;;3.00;99.90;;;;;;5058080;28;20417;-78
2023/02/06 03:45:14;;;;;;;15.23;5.43;;;2.80;99.90;;;;;;5037344;28;21017;-77
2023/02/06 03:47:43;;;;;;;16.20;4.63;;;2.80;99.90;;;;;;5056501;28;20471;-78
2023/02/06 03:50:10;;;;;;;22.20;5.30;;;2.80;99.90;;;;;;5060337;28;20415;-78
2023/02/06 03:52:40;;;;;;;17.93;5.87;;;3.00;99.90;;;;;;5060453;28;20404;-78
2023/02/06 03:55:14;;;;;;;15.77;5.27;;;2.70;99.90;;;;;;5059245;28;20479;-77
2023/02/06 03:57:42;;;;;;;15.27;4.60;;;2.70;99.90;;;;;;5061478;28;20819;-77
2023/02/06 04:00:09;;;;;;;13.93;5.40;;;2.80;99.90;;;;;;5061039;28;20485;-78
2023/02/06 04:02:36;;;;;;;12.87;4.90;;;3.00;99.90;;;;;;5060747;28;20436;-77
2023/02/06 04:05:01;;;;;;;12.97;6.47;;;2.80;99.90;;;;;;5060369;28;20654;-78
2023/02/06 04:07:29;;;;;;;13.17;4.87;;;3.00;99.90;;;;;;5058995;28;20420;-78
2023/02/06 04:09:55;;;;;;;16.00;5.10;;;3.00;99.90;;;;;;5059656;28;20178;-78
2023/02/06 04:12:22;;;;;;;16.70;5.70;;;2.80;99.90;;;;;;5060595;28;20425;-77
2023/02/06 04:14:48;;;;;;;16.40;5.90;;;2.70;99.90;;;;;;5059508;28;20209;-77
2023/02/06 04:17:14;;;;;;;15.73;4.83;;;2.80;99.90;;;;;;5059389;28;20913;-78
2023/02/06 04:19:40;;;;;;;14.73;5.97;;;2.80;99.90;;;;;;5060844;28;20192;-78
2023/02/06 04:22:10;;;;;;;20.80;8.27;;;2.90;99.90;;;;;;5059953;28;20416;-77
2023/02/06 04:24:38;;;;;;;15.63;5.77;;;2.80;99.90;;;;;;5059939;28;20550;-78
2023/02/06 04:27:03;;;;;;;20.73;6.27;;;2.90;99.90;;;;;;5060612;28;20416;-78
2023/02/06 04:29:30;;;;;;;20.43;6.17;;;2.80;99.90;;;;;;5061166;28;20455;-78
2023/02/06 04:32:00;;;;;;;16.70;5.73;;;2.80;99.90;;;;;;5060891;28;20181;-78
2023/02/06 04:34:27;;;;;;;15.70;6.17;;;2.90;99.90;;;;;;5059511;28;20975;-78
2023/02/06 04:36:53;;;;;;;17.50;4.50;;;2.80;99.90;;;;;;5060542;28;20416;-78
2023/02/06 04:39:18;;;;;;;14.07;5.50;;;2.80;99.90;;;;;;5059869;28;20462;-77
2023/02/06 04:41:44;;;;;;;11.07;4.83;;;2.90;99.90;;;;;;5044183;28;20204;-78
2023/02/06 04:44:10;;;;;;;13.10;4.80;;;2.70;99.90;;;;;;5060297;28;20339;-79
2023/02/06 04:46:35;;;;;;;12.00;5.13;;;2.80;99.90;;;;;;5061236;28;20634;-78
2023/02/06 04:49:01;;;;;;;18.43;6.20;;;2.80;99.90;;;;;;5061907;28;20201;-77
2023/02/06 04:51:27;;;;;;;12.03;4.30;;;2.70;99.90;;;;;;5060082;28;20185;-78
2023/02/06 04:53:52;;;;;;;15.37;5.47;;;2.80;99.90;;;;;;5059750;28;20412;-78
2023/02/06 04:56:18;;;;;;;12.97;4.80;;;2.60;99.90;;;;;;5061354;28;20166;-78
2023/02/06 04:58:44;;;;;;;15.40;4.70;;;2.70;99.90;;;;;;5061142;28;20186;-78
2023/02/06 05:01:09;;;;;;;16.60;5.90;;;2.90;99.90;;;;;;5060182;28;20769;-78
2023/02/06 05:03:35;;;;;;;9.10;4.13;;;2.90;99.90;;;;;;5059804;28;20181;-78
2023/02/06 05:06:03;;;;;;;12.33;5.13;;;2.80;99.90;;;;;;5061494;28;20209;-78
2023/02/06 05:08:28;;;;;;;12.43;4.50;;;2.70;99.90;;;;;;5061053;28;20213;-78
2023/02/06 05:10:54;;;;;;;18.63;5.80;;;2.80;99.90;;;;;;5043470;28;20408;-79
2023/02/06 05:13:20;;;;;;;13.77;4.67;;;2.70;99.90;;;;;;5059759;28;20224;-78
2023/02/06 05:15:46;;;;;;;13.77;4.70;;;2.80;99.90;;;;;;5059213;28;20424;-77
2023/02/06 05:18:12;;;;;;;19.53;5.93;;;2.80;99.90;;;;;;5061539;28;20421;-78
2023/02/06 05:20:38;;;;;;;16.73;5.83;;;3.00;99.90;;;;;;5058137;28;21013;-77
2023/02/06 05:23:04;;;;;;;13.63;5.40;;;2.80;99.90;;;;;;5060621;28;20423;-78
2023/02/06 05:25:29;;;;;;;15.53;5.60;;;3.10;99.90;;;;;;5043206;28;20220;-79
2023/02/06 05:27:56;;;;;;;14.97;5.97;;;2.90;99.90;;;;;;5060810;28;20289;-78
2023/02/06 05:30:23;;;;;;;15.13;5.00;;;3.00;99.90;;;;;;5059748;28;20204;-78
2023/02/06 05:32:49;;;;;;;15.43;6.37;;;2.90;99.90;;;;;;5059836;28;20427;-78
2023/02/06 05:35:14;;;;;;;14.57;5.30;;;2.90;99.90;;;;;;5042693;28;20433;-78
2023/02/06 05:37:40;;;;;;;16.80;5.03;;;3.00;99.90;;;;;;5059893;28;20405;-78
2023/02/06 05:40:06;;;;;;;25.30;6.03;;;3.20;99.90;;;;;;5061166;28;20182;-78
2023/02/06 05:42:32;;;;;;;23.53;6.53;;;3.10;99.90;;;;;;5042977;28;20185;-78
2023/02/06 05:44:58;;;;;;;20.40;6.97;;;2.90;99.90;;;;;;5059019;28;20610;-78
2023/02/06 05:47:24;;;;;;;16.63;7.93;;;3.10;99.90;;;;;;5060187;28;20181;-78
2023/02/06 05:49:50;;;;;;;24.20;6.40;;;3.00;99.90;;;;;;5060405;28;20236;-78
2023/02/06 05:52:16;;;;;;;23.03;7.77;;;3.10;99.90;;;;;;5059342;28;20443;-77
2023/02/06 05:54:42;;;;;;;26.13;8.40;;;3.10;99.90;;;;;;5042759;28;20439;-78
2023/02/06 05:57:07;;;;;;;21.50;7.40;;;3.00;99.90;;;;;;5059234;28;20178;-78
2023/02/06 05:59:33;;;;;;;21.80;10.07;;;3.20;99.90;;;;;;5060165;28;20762;-78
2023/02/06 06:01:58;;;;;;;31.20;9.17;;;3.10;99.90;;;;;;5041778;28;20186;-78
2023/02/06 06:04:24;;;;;;;25.23;11.00;;;3.40;99.90;;;;;;5060298;28;20231;-78
2023/02/06 06:06:50;;;;;;;29.00;10.50;;;3.30;99.90;;;;;;5061917;28;20182;-78
2023/02/06 06:09:16;;;;;;;23.17;9.43;;;3.30;99.90;;;;;;5060277;28;20563;-78
2023/02/06 06:11:42;;;;;;;38.33;9.77;;;3.50;99.90;;;;;;5058197;28;20189;-77
2023/02/06 06:14:07;;;;;;;24.63;9.87;;;3.10;99.90;;;;;;5057415;28;20184;-78
2023/02/06 06:16:33;;;;;;;24.77;10.00;;;3.30;99.90;;;;;;5058512;28;20186;-78
2023/02/06 06:19:00;;;;;;;25.13;10.80;;;3.50;99.90;;;;;;5058781;28;20545;-78
2023/02/06 06:21:26;;;;;;;32.70;10.60;;;3.50;99.90;;;;;;5058101;28;20205;-77
2023/02/06 06:23:52;;;;;;;33.00;11.03;;;3.40;99.90;;;;;;5058181;28;20455;-78
2023/02/06 06:26:17;;;;;;;28.73;11.10;;;3.50;99.90;;;;;;5058351;28;20249;-78
2023/02/06 06:28:43;;;;;;;36.23;11.10;;;3.30;99.90;;;;;;5057243;28;20201;-78
2023/02/06 06:31:13;;;;;;;29.57;11.20;;;3.50;99.90;;;;;;5058019;28;20444;-78
2023/02/06 06:33:39;;;;;;;33.23;11.33;;;3.50;99.90;;;;;;5056628;28;20408;-78
2023/02/06 06:36:07;;;;;;;23.00;11.13;;;3.60;99.90;;;;;;5057645;28;20462;-78
2023/02/06 06:38:33;;;;;;;34.20;12.60;;;3.40;99.90;;;;;;5053743;28;20426;-78
2023/02/06 06:40:59;;;;;;;31.43;12.07;;;3.50;99.90;;;;;;5052052;28;20423;-78
2023/02/06 06:43:24;;;;;;;32.53;11.43;;;3.30;99.90;;;;;;5054113;28;20420;-78
2023/02/06 06:45:50;;;;;;;30.87;11.87;;;3.60;99.90;;;;;;5058545;28;20202;-78
2023/02/06 06:48:16;;;;;;;31.33;10.60;;;3.50;99.90;;;;;;5057878;28;20233;-78
2023/02/06 06:50:41;;;;;;;35.90;10.60;;;3.40;99.90;;;;;;5058279;28;20189;-78
2023/02/06 06:53:07;;;;;;;31.07;10.93;;;3.50;99.90;;;;;;5058722;28;20223;-78
2023/02/06 06:55:33;;;;;;;21.07;10.37;;;3.50;99.90;;;;;;5060164;28;20202;-78
2023/02/06 06:57:59;;;;;;;31.17;11.17;;;3.30;99.90;;;;;;5041169;28;20186;-78
2023/02/06 07:00:25;;;;;;;26.70;12.17;;;3.40;99.90;;;;;;5059660;28;20758;-78
2023/02/06 07:02:51;;;;;;;25.80;10.50;;;3.50;99.90;;;;;;5057205;28;20209;-79
2023/02/06 07:05:17;;;;;;;29.03;10.70;;;3.30;99.90;;;;;;5058944;28;20721;-79
2023/02/06 07:07:43;;;;;;;31.77;10.33;;;3.70;99.90;;;;;;5057481;28;20933;-79
2023/02/06 07:10:10;;;;;;;26.63;10.87;;;3.40;99.90;;;;;;5059247;28;20411;-78
2023/02/06 07:12:37;;;;;;;30.03;11.10;;;3.40;99.90;;;;;;5058178;28;20180;-79
2023/02/06 07:15:03;;;;;;;20.30;9.87;;;3.50;99.90;;;;;;5058889;28;20511;-79
2023/02/06 07:17:29;;;;;;;22.03;11.27;;;3.30;99.90;;;;;;5059229;28;20480;-79
2023/02/06 07:19:55;;;;;;;15.30;9.40;;;3.50;99.90;;;;;;5059219;28;20948;-79
2023/02/06 07:22:21;;;;;;;25.90;10.30;;;3.40;99.90;;;;;;5057212;28;20174;-78
2023/02/06 07:24:46;;;;;;;21.80;11.03;;;3.60;99.90;;;;;;5059339;28;20204;-78
2023/02/06 07:27:12;;;;;;;27.27;12.00;;;3.50;99.90;;;;;;5057735;28;20440;-80
2023/02/06 07:29:38;;;;;;;27.10;11.60;;;3.50;99.90;;;;;;5057032;28;20378;-79
2023/02/06 07:32:05;;;;;;;19.93;9.70;;;3.70;99.90;;;;;;5058896;28;20428;-79
2023/02/06 07:34:30;;;;;;;24.73;10.47;;;3.50;99.90;;;;;;5058813;28;20189;-79
2023/02/06 07:36:58;;;;;;;20.00;10.00;;;3.60;99.90;;;;;;5058772;28;20952;-79
2023/02/06 07:39:24;;;;;;;19.03;8.90;;;3.70;99.90;;;;;;5058775;28;20238;-79
2023/02/06 07:41:50;;;;;;;21.97;10.17;;;3.60;99.90;;;;;;5058892;28;20420;-79
2023/02/06 07:44:15;;;;;;;20.47;9.33;;;3.70;99.90;;;;;;5057155;28;20440;-78
2023/02/06 07:46:42;;;;;;;24.73;10.50;;;3.60;99.90;;;;;;5058189;28;20209;-79
2023/02/06 07:49:10;;;;;;;22.63;9.43;;;3.70;99.90;;;;;;5056642;28;20204;-79
2023/02/06 07:51:35;;;;;;;25.60;10.37;;;3.80;99.90;;;;;;5058280;28;20400;-79
2023/02/06 07:54:01;;;;;;;27.93;11.63;;;3.80;99.90;;;;;;5056953;28;20694;-78
2023/02/06 07:56:27;;;;;;;29.67;11.00;;;3.60;99.90;;;;;;5057296;28;20185;-79
2023/02/06 07:58:53;;;;;;;23.50;10.20;;;3.80;99.90;;;;;;5057000;28;20184;-79
2023/02/06 08:01:20;;;;;;;28.10;10.60;;;3.80;99.90;;;;;;5056501;28;20435;-79
2023/02/06 08:03:51;;;;;;;25.63;11.50;;;3.80;99.90;;;;;;5056394;28;20427;-79
2023/02/06 08:06:17;;;;;;;23.33;12.23;;;3.90;99.90;;;;;;5040177;28;20444;-78
2023/02/06 08:08:43;;;;;;;29.07;10.30;;;4.00;99.90;;;;;;5056591;28;20486;-79
2023/02/06 08:11:12;;;;;;;28.10;11.73;;;3.90;99.90;;;;;;5056353;28;20419;-79
2023/02/06 08:13:38;;;;;;;24.50;9.60;;;3.80;99.90;;;;;;5057738;28;20416;-79
2023/02/06 08:16:10;;;;;;;21.03;11.30;;;3.90;99.90;;;;;;5056357;28;20765;-79
2023/02/06 08:18:37;;;;;;;26.37;12.20;;;4.00;99.90;;;;;;5056076;28;20416;-79
2023/02/06 08:21:05;;;;;;;36.80;12.23;;;4.00;99.90;;;;;;5056247;28;20412;-79
2023/02/06 08:23:31;;;;;;;31.17;13.37;;;3.90;99.90;;;;;;5056243;28;20906;-79
2023/02/06 08:26:05;;;;;;;29.23;14.23;;;3.90;99.90;;;;;;5056198;28;20544;-78
2023/02/06 08:28:31;;;;;;;42.37;14.50;;;4.10;99.90;;;;;;5053359;28;20960;-79
2023/02/06 08:30:57;;;;;;;31.87;12.90;;;4.10;99.90;;;;;;5053876;28;21272;-79
2023/02/06 08:33:23;;;;;;;28.67;12.73;;;4.00;99.90;;;;;;5056133;28;20420;-79
2023/02/06 08:35:49;;;;;;;28.73;12.13;;;4.00;99.90;;;;;;5059064;28;20428;-79
2023/02/06 08:38:14;;;;;;;26.97;11.80;;;4.00;99.90;;;;;;5059954;28;20443;-79
2023/02/06 08:40:40;;;;;;;31.20;11.93;;;4.00;99.90;;;;;;5060247;28;20212;-79
2023/02/06 08:43:05;;;;;;;33.23;11.13;;;4.00;99.90;;;;;;5059555;28;20224;-79
2023/02/06 08:45:31;;;;;;;28.90;10.47;;;4.30;99.90;;;;;;5060992;28;20269;-79
2023/02/06 08:47:57;;;;;;;30.40;11.97;;;4.10;99.90;;;;;;5059044;28;20287;-79
2023/02/06 08:50:22;;;;;;;32.90;11.27;;;4.30;99.90;;;;;;5060723;28;20438;-79
2023/02/06 08:52:48;;;;;;;32.47;12.30;;;4.10;99.90;;;;;;5059526;28;20265;-79
2023/02/06 08:55:14;;;;;;;29.60;12.80;;;4.40;99.90;;;;;;5060641;28;20284;-78
2023/02/06 08:57:39;;;;;;;29.13;10.40;;;4.20;99.90;;;;;;5059497;28;20181;-78
2023/02/06 09:00:06;;;;;;;30.30;11.10;;;4.20;99.90;;;;;;5059177;28;20178;-79
2023/02/06 09:02:31;;;;;;;22.27;9.63;;;4.10;99.90;;;;;;5060377;28;20667;-79
2023/02/06 09:04:58;;;;;;;23.10;8.97;;;4.30;99.90;;;;;;5042901;28;20448;-79
2023/02/06 09:07:23;;;;;;;21.33;9.07;;;4.20;99.90;;;;;;5059231;28;20185;-78
2023/02/06 09:09:49;;;;;;;31.43;9.30;;;4.20;99.90;;;;;;5058914;28;20467;-80
2023/02/06 09:12:15;;;;;;;29.20;9.00;;;4.50;99.90;;;;;;5052840;28;20174;-79
2023/02/06 09:14:40;;;;;;;24.13;10.17;;;4.30;99.90;;;;;;5052478;28;20198;-80
2023/02/06 09:17:07;;;;;;;21.23;9.00;;;4.50;99.90;;;;;;5050758;28;20212;-80
2023/02/06 09:19:33;;;;;;;22.90;7.43;;;4.30;99.90;;;;;;5050870;28;20427;-80
2023/02/06 09:21:58;;;;;;;24.87;11.20;;;4.50;99.90;;;;;;5050116;28;20404;-80
2023/02/06 09:24:26;;;;;;;21.20;8.90;;;4.40;99.90;;;;;;5051683;28;20529;-80
2023/02/06 09:26:51;;;;;;;25.87;10.40;;;4.20;99.90;;;;;;5052528;28;20196;-80
2023/02/06 09:29:17;;;;;;;23.23;9.93;;;4.60;99.90;;;;;;5052758;28;20456;-80
2023/02/06 09:31:43;;;;;;;22.43;9.60;;;4.20;99.90;;;;;;5052501;28;20178;-79
2023/02/06 09:34:11;;;;;;;30.00;12.20;;;4.30;99.90;;;;;;5050475;28;20210;-80
2023/02/06 09:36:36;;;;;;;27.67;9.80;;;4.60;99.90;;;;;;5050740;28;20181;-80
2023/02/06 09:39:04;;;;;;;23.90;10.17;;;4.40;99.90;;;;;;5051434;28;20412;-80
2023/02/06 09:41:51;;;;;;;29.77;10.30;;;4.30;99.90;;;;;;5050581;28;20239;-81
2023/02/06 09:44:28;;;;;;;27.33;10.57;;;4.40;99.90;;;;;;5051391;28;20450;-79
2023/02/06 09:47:09;;;;;;;28.80;11.20;;;4.50;99.90;;;;;;5049681;28;20423;-80
2023/02/06 09:50:01;;;;;;;32.37;11.70;;;4.60;99.90;;;;;;5033508;28;20470;-80
2023/02/06 09:52:53;;;;;;;31.67;11.13;;;4.50;99.90;;;;;;5051614;28;20408;-80
2023/02/06 09:55:48;;;;;;;32.67;12.87;;;4.40;99.90;;;;;;5051667;28;20460;-80
2023/02/06 09:58:29;;;;;;;29.67;13.37;;;4.60;99.90;;;;;;5033325;28;20415;-79
2023/02/06 10:01:03;;;;;;;35.37;14.30;;;4.40;99.90;;;;;;5051543;28;20498;-80
2023/02/06 10:03:35;;;;;;;39.53;14.10;;;4.40;99.90;;;;;;5051290;28;20416;-80
2023/02/06 10:06:03;;;;;;;39.43;12.87;;;4.50;99.90;;;;;;5050351;28;20470;-80
2023/02/06 10:08:37;;;;;;;35.93;14.13;;;4.60;99.90;;;;;;5051036;28;20501;-79
2023/02/06 10:11:18;;;;;;;41.67;17.00;;;4.50;99.90;;;;;;5051144;28;20454;-79
2023/02/06 10:13:50;;;;;;;45.30;16.90;;;4.50;99.90;;;;;;5051597;28;20443;-80
2023/02/06 10:16:34;;;;;;;41.20;16.17;;;4.60;99.90;;;;;;5050244;28;20428;-79
2023/02/06 10:19:19;;;;;;;51.20;14.80;;;4.80;99.90;;;;;;5051038;28;20404;-80
2023/02/06 10:21:57;;;;;;;35.20;13.70;;;4.80;99.90;;;;;;5051347;28;20401;-79
2023/02/06 10:24:39;;;;;;;33.57;14.20;;;4.70;99.90;;;;;;5050835;28;20462;-79
2023/02/06 10:27:11;;;;;;;45.73;14.70;;;4.90;99.90;;;;;;5049838;28;20408;-80
2023/02/06 10:29:39;;;;;;;38.37;14.23;;;4.70;99.90;;;;;;5050924;28;20452;-80
2023/02/06 10:32:42;;;;;;;34.73;15.67;;;4.90;99.90;;;;;;5033276;28;20412;-79
2023/02/06 10:35:25;;;;;;;31.07;13.00;;;5.10;99.90;;;;;;5050855;28;20424;-79
2023/02/06 10:37:57;;;;;;;28.17;13.33;;;4.70;99.90;;;;;;5050826;28;20419;-80
2023/02/06 10:40:34;;;;;;;34.93;14.60;;;4.70;99.90;;;;;;5049463;28;20495;-80
2023/02/06 10:43:15;;;;;;;34.37;14.00;;;5.00;99.90;;;;;;5050971;28;20408;-80
2023/02/06 10:45:59;;;;;;;28.33;12.47;;;5.10;99.90;;;;;;5068468;28;20760;-80
2023/02/06 10:48:43;;;;;;;28.07;12.57;;;5.20;99.90;;;;;;5068918;28;20536;-80
2023/02/06 10:51:25;;;;;;;28.87;12.00;;;5.10;99.90;;;;;;5070423;28;20901;-80
2023/02/06 10:54:01;;;;;;;29.47;11.77;;;5.10;99.90;;;;;;5070254;28;20777;-80
2023/02/06 10:56:38;;;;;;;32.80;12.13;;;5.30;99.90;;;;;;5070622;28;20414;-80
2023/02/06 10:59:22;;;;;;;24.77;12.00;;;5.30;99.90;;;;;;5070489;28;20446;-79
2023/02/06 11:01:52;;;;;;;27.60;12.87;;;5.40;99.90;;;;;;5069676;28;20986;-80
2023/02/06 11:04:25;;;;;;;27.00;11.13;;;5.60;99.90;;;;;;5070061;28;20459;-80
2023/02/06 11:06:59;;;;;;;29.23;12.37;;;5.80;99.90;;;;;;5052756;28;21046;-80
2023/02/06 11:09:25;;;;;;;29.93;12.70;;;5.70;99.90;;;;;;5069219;28;20850;-80
2023/02/06 11:11:54;;;;;;;30.23;13.50;;;5.90;99.90;;;;;;5069131;28;20412;-80
2023/02/06 11:14:29;;;;;;;27.60;13.57;;;5.80;99.90;;;;;;5070150;28;20437;-80
2023/02/06 11:16:58;;;;;;;29.83;13.80;;;5.90;99.90;;;;;;5070261;28;20414;-78
2023/02/06 11:19:36;;;;;;;34.50;15.97;;;5.80;99.90;;;;;;5069415;28;20415;-79
2023/02/06 11:22:11;;;;;;;29.50;13.60;;;6.00;99.90;;;;;;5069164;28;20444;-78
2023/02/06 11:24:38;;;;;;;30.63;12.00;;;5.90;99.90;;;;;;5068798;28;20434;-79
2023/02/06 11:27:24;;;;;;;28.50;10.50;;;5.90;99.90;;;;;;5070016;28;20840;-79
2023/02/06 11:29:50;;;;;;;24.53;11.10;;;6.00;99.90;;;;;;5070051;28;20890;-79
2023/02/06 11:32:28;;;;;;;27.10;11.83;;;5.80;99.90;;;;;;5069501;28;20411;-80
2023/02/06 11:34:58;;;;;;;35.37;13.73;;;5.80;99.90;;;;;;5070156;28;20439;-79
2023/02/06 11:37:38;;;;;;;28.93;11.83;;;6.00;99.90;;;;;;5068551;28;20400;-79
2023/02/06 11:40:16;;;;;;;30.80;13.00;;;5.80;99.90;;;;;;5055322;28;20466;-81
2023/02/06 11:42:43;;;;;;;25.80;11.13;;;5.90;99.90;;;;;;5050293;28;20408;-80
2023/02/06 11:45:29;;;;;;;31.33;11.50;;;6.10;99.90;;;;;;5063412;28;20923;-80
2023/02/06 11:47:55;;;;;;;23.77;10.43;;;5.80;99.90;;;;;;5070170;28;20477;-81
2023/02/06 11:50:32;;;;;;;28.17;10.30;;;5.70;99.90;;;;;;5068347;28;20415;-80
2023/02/06 11:53:16;;;;;;;19.87;9.20;;;6.00;99.90;;;;;;5068978;28;20399;-80
2023/02/06 11:55:43;;;;;;;19.07;8.43;;;5.90;99.90;;;;;;5070628;28;20493;-80
2023/02/06 11:58:11;;;;;;;24.47;9.97;;;5.90;99.90;;;;;;5070064;28;20419;-80
2023/02/06 12:00:56;;;;;;;25.13;11.83;;;6.10;99.90;;;;;;5052086;28;20847;-80
2023/02/06 12:03:59;;;;;;;25.93;10.13;;;5.90;99.90;;;;;;5068786;28;20800;-79
2023/02/06 12:06:28;;;;;;;19.40;9.37;;;5.90;99.90;;;;;;5070109;28;20454;-80
2023/02/06 12:08:57;;;;;;;22.20;10.73;;;5.90;99.90;;;;;;5070522;28;20477;-80
2023/02/06 12:11:35;;;;;;;24.13;10.53;;;5.80;99.90;;;;;;5073194;28;20411;-81
2023/02/06 12:14:12;;;;;;;24.70;10.13;;;5.80;99.90;;;;;;5072638;28;20457;-80
2023/02/06 12:16:40;;;;;;;22.50;11.90;;;5.90;99.90;;;;;;5072995;28;20468;-80
2023/02/06 12:19:30;;;;;;;19.73;9.57;;;5.90;99.90;;;;;;5072309;28;20967;-80
2023/02/06 12:22:17;;;;;;;18.40;9.33;;;6.00;99.90;;;;;;5055226;28;20408;-80
2023/02/06 12:24:47;;;;;;;19.57;9.83;;;5.80;99.90;;;;;;5073726;28;20485;-80
2023/02/06 12:27:18;;;;;;;14.40;7.50;;;6.00;99.90;;;;;;5073383;28;20476;-80
2023/02/06 12:29:55;;;;;;;13.50;8.80;;;5.80;99.90;;;;;;5055708;28;20462;-80
2023/02/06 12:32:30;;;;;;;12.57;8.60;;;5.90;99.90;;;;;;5073982;28;20403;-80
2023/02/06 12:34:59;;;;;;;13.97;6.83;;;6.00;99.90;;;;;;5073248;28;20736;-80
2023/02/06 12:37:45;;;;;;;11.23;6.77;;;6.00;99.90;;;;;;5073218;28;20426;-80
2023/02/06 12:40:48;;;;;;;14.17;6.90;;;5.90;99.90;;;;;;5056949;28;20419;-80
2023/02/06 12:43:16;;;;;;;11.40;6.23;;;5.80;99.90;;;;;;5035678;28;20412;-80
2023/02/06 12:46:05;;;;;;;23.00;7.13;;;6.10;99.90;;;;;;5071499;28;20434;-80
2023/02/06 12:48:44;;;;;;;14.33;8.20;;;5.90;99.90;;;;;;5073631;28;20546;-80
2023/02/06 12:51:39;;;;;;;17.37;8.07;;;5.90;99.90;;;;;;5073624;28;20509;-81
2023/02/06 12:54:13;;;;;;;14.77;7.10;;;5.90;99.90;;;;;;5073475;28;20403;-80
2023/02/06 12:56:45;;;;;;;12.47;8.13;;;6.20;99.90;;;;;;5073762;28;20486;-81
2023/02/06 12:59:36;;;;;;;12.87;7.57;;;6.10;99.90;;;;;;5073421;28;20411;-81
2023/02/06 13:02:15;;;;;;;14.63;8.00;;;6.00;99.90;;;;;;5073677;28;20438;-81